sensor_id;sensor_type;location;lat;lon;timestamp;pressure;altitude;pressure_sealevel;temperature;humidity
55032;BME280;40928;51.076;7.950;2023-09-08T00:01:14;97408.41;;;15.04;100.00
55032;BME280;40928;51.076;7.950;2023-09-08T00:03:39;97405.13;;;14.97;100.00
55032;BME280;40928;51.076;7.950;2023-09-08T00:06:05;97401.06;;;14.95;100.00
55032;BME280;40928;51.076;7.950;2023-09-08T00:08:30;97406.97;;;14.91;100.00
55032;BME280;40928;51.076;7.950;2023-09-08T00:10:55;97395.91;;;14.88;100.00
55032;BME280;40928;51.076;7.950;2023-09-08T00:13:21;97402.31;;;14.82;100.00
55032;BME280;40928;51.076;7.950;2023-09-08T00:15:46;97396.66;;;14.78;100.00
55032;BME280;40928;51.076;7.950;2023-09-08T00:18:12;97400.66;;;14.75;100.00
55032;BME280;40928;51.076;7.950;2023-09-08T00:20:37;97386.91;;;14.72;100.00
55032;BME280;40928;51.076;7.950;2023-09-08T00:23:03;97389.78;;;14.65;100.00
55032;BME280;40928;51.076;7.950;2023-09-08T00:25:29;97393.00;;;14.62;100.00
55032;BME280;40928;51.076;7.950;2023-09-08T00:27:54;97383.06;;;14.62;100.00
55032;BME280;40928;51.076;7.950;2023-09-08T00:30:20;97396.22;;;14.64;100.00
55032;BME280;40928;51.076;7.950;2023-09-08T00:32:45;97392.69;;;14.58;100.00
55032;BME280;40928;51.076;7.950;2023-09-08T00:35:11;97389.13;;;14.48;100.00
55032;BME280;40928;51.076;7.950;2023-09-08T00:37:39;97379.72;;;14.50;100.00
55032;BME280;40928;51.076;7.950;2023-09-08T00:40:07;97389.13;;;14.48;100.00
55032;BME280;40928;51.076;7.950;2023-09-08T00:42:34;97388.78;;;14.44;100.00
55032;BME280;40928;51.076;7.950;2023-09-08T00:44:59;97380.94;;;14.37;100.00
55032;BME280;40928;51.076;7.950;2023-09-08T00:47:25;97393.56;;;14.37;100.00
55032;BME280;40928;51.076;7.950;2023-09-08T00:49:50;97391.09;;;14.30;100.00
55032;BME280;40928;51.076;7.950;2023-09-08T00:52:17;97393.22;;;14.28;100.00
55032;BME280;40928;51.076;7.950;2023-09-08T00:54:42;97386.28;;;14.32;100.00
55032;BME280;40928;51.076;7.950;2023-09-08T00:57:09;97384.34;;;14.27;100.00
55032;BME280;40928;51.076;7.950;2023-09-08T00:59:35;97391.59;;;14.27;100.00
55032;BME280;40928;51.076;7.950;2023-09-08T01:02:04;97380.78;;;14.22;100.00
55032;BME280;40928;51.076;7.950;2023-09-08T01:04:30;97388.81;;;14.16;100.00
55032;BME280;40928;51.076;7.950;2023-09-08T01:06:59;97393.94;;;14.18;100.00
55032;BME280;40928;51.076;7.950;2023-09-08T01:09:25;97393.44;;;14.21;100.00
55032;BME280;40928;51.076;7.950;2023-09-08T01:11:51;97392.38;;;14.22;100.00
55032;BME280;40928;51.076;7.950;2023-09-08T01:14:18;97399.03;;;14.20;100.00
55032;BME280;40928;51.076;7.950;2023-09-08T01:16:44;97389.63;;;14.17;100.00
55032;BME280;40928;51.076;7.950;2023-09-08T01:19:12;97393.88;;;14.13;100.00
55032;BME280;40928;51.076;7.950;2023-09-08T01:24:44;97395.63;;;14.02;100.00
55032;BME280;40928;51.076;7.950;2023-09-08T01:27:16;97391.28;;;13.96;100.00
55032;BME280;40928;51.076;7.950;2023-09-08T01:29:43;97395.53;;;13.92;100.00
55032;BME280;40928;51.076;7.950;2023-09-08T01:32:09;97387.72;;;13.90;100.00
55032;BME280;40928;51.076;7.950;2023-09-08T01:34:37;97380.44;;;13.85;100.00
55032;BME280;40928;51.076;7.950;2023-09-08T01:37:06;97384.19;;;13.84;100.00
55032;BME280;40928;51.076;7.950;2023-09-08T01:39:32;97377.69;;;13.80;100.00
55032;BME280;40928;51.076;7.950;2023-09-08T01:41:58;97378.75;;;13.79;100.00
55032;BME280;40928;51.076;7.950;2023-09-08T01:44:23;97380.06;;;13.77;100.00
55032;BME280;40928;51.076;7.950;2023-09-08T01:46:49;97384.59;;;13.76;100.00
55032;BME280;40928;51.076;7.950;2023-09-08T01:49:16;97384.88;;;13.75;100.00
55032;BME280;40928;51.076;7.950;2023-09-08T01:51:42;97393.16;;;13.73;100.00
55032;BME280;40928;51.076;7.950;2023-09-08T01:54:08;97381.31;;;13.69;100.00
55032;BME280;40928;51.076;7.950;2023-09-08T01:56:37;97379.69;;;13.68;100.00
55032;BME280;40928;51.076;7.950;2023-09-08T01:59:02;97378.56;;;13.64;100.00
55032;BME280;40928;51.076;7.950;2023-09-08T02:01:29;97379.63;;;13.63;100.00
55032;BME280;40928;51.076;7.950;2023-09-08T02:03:55;97374.75;;;13.60;100.00
55032;BME280;40928;51.076;7.950;2023-09-08T02:06:20;97375.50;;;13.55;100.00
55032;BME280;40928;51.076;7.950;2023-09-08T02:08:46;97372.44;;;13.46;100.00
55032;BME280;40928;51.076;7.950;2023-09-08T02:11:13;97373.25;;;13.47;100.00
55032;BME280;40928;51.076;7.950;2023-09-08T02:13:41;97378.06;;;13.45;100.00
55032;BME280;40928;51.076;7.950;2023-09-08T02:16:13;97385.28;;;13.44;100.00
55032;BME280;40928;51.076;7.950;2023-09-08T02:18:39;97380.97;;;13.43;100.00
55032;BME280;40928;51.076;7.950;2023-09-08T02:21:05;97376.66;;;13.42;100.00
55032;BME280;40928;51.076;7.950;2023-09-08T02:23:32;97378.78;;;13.40;100.00
55032;BME280;40928;51.076;7.950;2023-09-08T02:25:59;97379.00;;;13.38;100.00
55032;BME280;40928;51.076;7.950;2023-09-08T02:28:24;97372.03;;;13.37;100.00
55032;BME280;40928;51.076;7.950;2023-09-08T02:30:51;97373.34;;;13.35;100.00
55032;BME280;40928;51.076;7.950;2023-09-08T02:33:17;97371.94;;;13.32;100.00
55032;BME280;40928;51.076;7.950;2023-09-08T02:35:43;97371.63;;;13.29;100.00
55032;BME280;40928;51.076;7.950;2023-09-08T02:38:10;97370.34;;;13.31;100.00
55032;BME280;40928;51.076;7.950;2023-09-08T02:40:36;97367.91;;;13.30;100.00
55032;BME280;40928;51.076;7.950;2023-09-08T02:43:03;97374.28;;;13.23;100.00
55032;BME280;40928;51.076;7.950;2023-09-08T02:45:29;97374.81;;;13.25;100.00
55032;BME280;40928;51.076;7.950;2023-09-08T02:47:54;97367.81;;;13.24;100.00
55032;BME280;40928;51.076;7.950;2023-09-08T02:50:21;97362.97;;;13.21;100.00
55032;BME280;40928;51.076;7.950;2023-09-08T02:52:47;97359.16;;;13.17;100.00
55032;BME280;40928;51.076;7.950;2023-09-08T02:55:12;97371.00;;;13.21;100.00
55032;BME280;40928;51.076;7.950;2023-09-08T02:57:39;97367.28;;;13.22;100.00
55032;BME280;40928;51.076;7.950;2023-09-08T03:00:06;97369.13;;;13.22;100.00
55032;BME280;40928;51.076;7.950;2023-09-08T03:02:33;97365.66;;;13.21;100.00
55032;BME280;40928;51.076;7.950;2023-09-08T03:04:59;97364.81;;;13.21;100.00
55032;BME280;40928;51.076;7.950;2023-09-08T03:07:29;97359.72;;;13.19;100.00
55032;BME280;40928;51.076;7.950;2023-09-08T03:09:55;97361.00;;;13.17;100.00
55032;BME280;40928;51.076;7.950;2023-09-08T03:12:21;97358.31;;;13.17;100.00
55032;BME280;40928;51.076;7.950;2023-09-08T03:14:46;97354.28;;;13.14;100.00
55032;BME280;40928;51.076;7.950;2023-09-08T03:17:12;97358.03;;;13.13;100.00
55032;BME280;40928;51.076;7.950;2023-09-08T03:19:38;97352.66;;;13.13;100.00
55032;BME280;40928;51.076;7.950;2023-09-08T03:22:05;97359.34;;;13.10;100.00
55032;BME280;40928;51.076;7.950;2023-09-08T03:24:31;97351.78;;;13.07;100.00
55032;BME280;40928;51.076;7.950;2023-09-08T03:26:57;97354.94;;;13.04;100.00
55032;BME280;40928;51.076;7.950;2023-09-08T03:29:23;97360.78;;;13.01;100.00
55032;BME280;40928;51.076;7.950;2023-09-08T03:31:49;97352.13;;;12.94;100.00
55032;BME280;40928;51.076;7.950;2023-09-08T03:34:15;97350.25;;;12.94;100.00
55032;BME280;40928;51.076;7.950;2023-09-08T03:36:41;97355.03;;;12.92;100.00
55032;BME280;40928;51.076;7.950;2023-09-08T03:39:07;97353.50;;;12.97;100.00
55032;BME280;40928;51.076;7.950;2023-09-08T03:41:34;97351.56;;;12.92;100.00
55032;BME280;40928;51.076;7.950;2023-09-08T03:44:00;97350.69;;;12.86;100.00
55032;BME280;40928;51.076;7.950;2023-09-08T03:46:25;97347.34;;;12.79;100.00
55032;BME280;40928;51.076;7.950;2023-09-08T03:48:51;97349.22;;;12.78;100.00
55032;BME280;40928;51.076;7.950;2023-09-08T03:51:17;97336.63;;;12.79;100.00
55032;BME280;40928;51.076;7.950;2023-09-08T03:53:43;97339.31;;;12.79;100.00
55032;BME280;40928;51.076;7.950;2023-09-08T03:56:09;97339.81;;;12.76;100.00
55032;BME280;40928;51.076;7.950;2023-09-08T03:58:34;97341.91;;;12.74;100.00
55032;BME280;40928;51.076;7.950;2023-09-08T04:01:00;97334.69;;;12.74;100.00
55032;BME280;40928;51.076;7.950;2023-09-08T04:03:25;97334.38;;;12.71;100.00
55032;BME280;40928;51.076;7.950;2023-09-08T04:05:51;97332.16;;;12.68;100.00
55032;BME280;40928;51.076;7.950;2023-09-08T04:08:16;97333.72;;;12.63;100.00
55032;BME280;40928;51.076;7.950;2023-09-08T04:10:42;97335.28;;;12.59;100.00
55032;BME280;40928;51.076;7.950;2023-09-08T04:13:08;97328.78;;;12.55;100.00
55032;BME280;40928;51.076;7.950;2023-09-08T04:15:33;97336.22;;;12.53;100.00
55032;BME280;40928;51.076;7.950;2023-09-08T04:17:59;97341.03;;;12.51;100.00
55032;BME280;40928;51.076;7.950;2023-09-08T04:20:25;97328.63;;;12.45;100.00
55032;BME280;40928;51.076;7.950;2023-09-08T04:22:51;97337.78;;;12.49;100.00
55032;BME280;40928;51.076;7.950;2023-09-08T04:25:16;97343.13;;;12.49;100.00
55032;BME280;40928;51.076;7.950;2023-09-08T04:27:42;97342.31;;;12.48;100.00
55032;BME280;40928;51.076;7.950;2023-09-08T04:30:10;97333.41;;;12.43;100.00
55032;BME280;40928;51.076;7.950;2023-09-08T04:32:36;97326.59;;;12.35;100.00
55032;BME280;40928;51.076;7.950;2023-09-08T04:35:03;97339.88;;;12.47;100.00
55032;BME280;40928;51.076;7.950;2023-09-08T04:37:29;97346.84;;;12.48;100.00
55032;BME280;40928;51.076;7.950;2023-09-08T04:39:56;97338.03;;;12.47;100.00
55032;BME280;40928;51.076;7.950;2023-09-08T04:42:22;97348.47;;;12.49;100.00
55032;BME280;40928;51.076;7.950;2023-09-08T04:44:49;97339.25;;;12.40;100.00
55032;BME280;40928;51.076;7.950;2023-09-08T04:47:15;97347.84;;;12.42;100.00
55032;BME280;40928;51.076;7.950;2023-09-08T04:49:40;97346.44;;;12.39;100.00
55032;BME280;40928;51.076;7.950;2023-09-08T04:52:06;97352.06;;;12.38;100.00
55032;BME280;40928;51.076;7.950;2023-09-08T04:54:32;97347.50;;;12.38;100.00
55032;BME280;40928;51.076;7.950;2023-09-08T04:56:58;97349.94;;;12.40;100.00
55032;BME280;40928;51.076;7.950;2023-09-08T04:59:24;97354.81;;;12.43;100.00
55032;BME280;40928;51.076;7.950;2023-09-08T05:01:51;97358.63;;;12.47;100.00
55032;BME280;40928;51.076;7.950;2023-09-08T05:04:17;97363.97;;;12.47;100.00
55032;BME280;40928;51.076;7.950;2023-09-08T05:06:44;97359.69;;;12.46;100.00
55032;BME280;40928;51.076;7.950;2023-09-08T05:09:11;97358.06;;;12.45;100.00
55032;BME280;40928;51.076;7.950;2023-09-08T05:11:36;97356.94;;;12.41;100.00
55032;BME280;40928;51.076;7.950;2023-09-08T05:14:02;97361.81;;;12.44;100.00
55032;BME280;40928;51.076;7.950;2023-09-08T05:16:28;97361.81;;;12.44;100.00
55032;BME280;40928;51.076;7.950;2023-09-08T05:19:07;97360.19;;;12.43;100.00
55032;BME280;40928;51.076;7.950;2023-09-08T05:21:33;97363.66;;;12.43;100.00
55032;BME280;40928;51.076;7.950;2023-09-08T05:23:59;97370.91;;;12.43;100.00
55032;BME280;40928;51.076;7.950;2023-09-08T05:26:25;97364.97;;;12.41;100.00
55032;BME280;40928;51.076;7.950;2023-09-08T05:28:51;97367.38;;;12.42;100.00
55032;BME280;40928;51.076;7.950;2023-09-08T05:31:19;97362.28;;;12.41;100.00
55032;BME280;40928;51.076;7.950;2023-09-08T05:33:45;97358.88;;;12.45;100.00
55032;BME280;40928;51.076;7.950;2023-09-08T05:36:11;97362.59;;;12.44;100.00
55032;BME280;40928;51.076;7.950;2023-09-08T05:38:37;97365.84;;;12.46;100.00
55032;BME280;40928;51.076;7.950;2023-09-08T05:41:04;97364.06;;;12.52;100.00
55032;BME280;40928;51.076;7.950;2023-09-08T05:43:30;97361.13;;;12.54;100.00
55032;BME280;40928;51.076;7.950;2023-09-08T05:45:56;97366.50;;;12.54;100.00
55032;BME280;40928;51.076;7.950;2023-09-08T05:48:22;97369.28;;;12.59;100.00
55032;BME280;40928;51.076;7.950;2023-09-08T05:50:47;97362.06;;;12.59;100.00
55032;BME280;40928;51.076;7.950;2023-09-08T05:53:14;97371.22;;;12.63;100.00
55032;BME280;40928;51.076;7.950;2023-09-08T05:55:41;97370.25;;;12.70;100.00
55032;BME280;40928;51.076;7.950;2023-09-08T05:58:08;97380.81;;;12.76;100.00
55032;BME280;40928;51.076;7.950;2023-09-08T06:00:35;97374.47;;;12.83;100.00
55032;BME280;40928;51.076;7.950;2023-09-08T06:03:02;97380.16;;;12.86;100.00
55032;BME280;40928;51.076;7.950;2023-09-08T06:05:29;97373.31;;;12.95;100.00
55032;BME280;40928;51.076;7.950;2023-09-08T06:07:55;97369.41;;;13.03;100.00
55032;BME280;40928;51.076;7.950;2023-09-08T06:10:21;97372.78;;;13.16;100.00
55032;BME280;40928;51.076;7.950;2023-09-08T06:12:47;97372.13;;;13.25;100.00
55032;BME280;40928;51.076;7.950;2023-09-08T06:15:17;97373.91;;;13.37;100.00
55032;BME280;40928;51.076;7.950;2023-09-08T06:17:42;97360.91;;;13.46;100.00
55032;BME280;40928;51.076;7.950;2023-09-08T06:20:08;97375.50;;;13.55;100.00
55032;BME280;40928;51.076;7.950;2023-09-08T06:22:34;97367.81;;;13.64;100.00
55032;BME280;40928;51.076;7.950;2023-09-08T06:25:00;97368.75;;;13.75;100.00
55032;BME280;40928;51.076;7.950;2023-09-08T06:27:26;97358.13;;;13.85;100.00
55032;BME280;40928;51.076;7.950;2023-09-08T06:29:51;97359.84;;;13.96;100.00
55032;BME280;40928;51.076;7.950;2023-09-08T06:32:17;97363.47;;;14.07;100.00
55032;BME280;40928;51.076;7.950;2023-09-08T06:34:45;97370.31;;;14.20;100.00
55032;BME280;40928;51.076;7.950;2023-09-08T06:37:10;97367.97;;;14.29;100.00
55032;BME280;40928;51.076;7.950;2023-09-08T06:39:36;97364.38;;;14.45;100.00
55032;BME280;40928;51.076;7.950;2023-09-08T06:42:02;97359.13;;;14.61;100.00
55032;BME280;40928;51.076;7.950;2023-09-08T06:44:28;97360.06;;;14.77;100.00
55032;BME280;40928;51.076;7.950;2023-09-08T06:46:53;97357.25;;;14.94;100.00
55032;BME280;40928;51.076;7.950;2023-09-08T06:49:21;97357.34;;;15.10;100.00
55032;BME280;40928;51.076;7.950;2023-09-08T06:51:47;97354.75;;;15.25;100.00
55032;BME280;40928;51.076;7.950;2023-09-08T06:54:13;97354.81;;;15.41;100.00
55032;BME280;40928;51.076;7.950;2023-09-08T06:56:42;97346.53;;;15.58;100.00
55032;BME280;40928;51.076;7.950;2023-09-08T06:59:08;97349.56;;;15.77;100.00
55032;BME280;40928;51.076;7.950;2023-09-08T07:01:34;97359.63;;;15.97;100.00
55032;BME280;40928;51.076;7.950;2023-09-08T07:04:00;97351.88;;;16.16;100.00
55032;BME280;40928;51.076;7.950;2023-09-08T07:06:26;97349.75;;;16.34;100.00
55032;BME280;40928;51.076;7.950;2023-09-08T07:08:52;97349.72;;;16.54;100.00
55032;BME280;40928;51.076;7.950;2023-09-08T07:11:19;97348.66;;;16.71;100.00
55032;BME280;40928;51.076;7.950;2023-09-08T07:13:45;97351.34;;;16.86;100.00
55032;BME280;40928;51.076;7.950;2023-09-08T07:16:11;97353.50;;;17.05;100.00
55032;BME280;40928;51.076;7.950;2023-09-08T07:18:37;97348.31;;;17.24;100.00
55032;BME280;40928;51.076;7.950;2023-09-08T07:21:05;97356.38;;;17.50;100.00
55032;BME280;40928;51.076;7.950;2023-09-08T07:23:31;97356.25;;;17.71;100.00
55032;BME280;40928;51.076;7.950;2023-09-08T07:25:57;97352.16;;;17.84;100.00
55032;BME280;40928;51.076;7.950;2023-09-08T07:28:26;97358.56;;;18.03;100.00
55032;BME280;40928;51.076;7.950;2023-09-08T07:30:53;97368.44;;;18.29;100.00
55032;BME280;40928;51.076;7.950;2023-09-08T07:33:20;97363.19;;;18.42;100.00
55032;BME280;40928;51.076;7.950;2023-09-08T07:35:48;97363.81;;;18.64;100.00
55032;BME280;40928;51.076;7.950;2023-09-08T07:38:13;97367.69;;;18.87;100.00
55032;BME280;40928;51.076;7.950;2023-09-08T07:40:41;97366.97;;;19.11;100.00
55032;BME280;40928;51.076;7.950;2023-09-08T07:43:06;97370.78;;;19.34;100.00
55032;BME280;40928;51.076;7.950;2023-09-08T07:45:32;97369.22;;;19.52;100.00
55032;BME280;40928;51.076;7.950;2023-09-08T07:47:57;97375.72;;;19.75;100.00
55032;BME280;40928;51.076;7.950;2023-09-08T07:50:25;97378.00;;;19.92;100.00
55032;BME280;40928;51.076;7.950;2023-09-08T07:52:53;97367.97;;;20.12;100.00
55032;BME280;40928;51.076;7.950;2023-09-08T07:55:19;97363.78;;;20.39;100.00
55032;BME280;40928;51.076;7.950;2023-09-08T07:57:49;97378.47;;;20.71;100.00
55032;BME280;40928;51.076;7.950;2023-09-08T08:00:16;97371.63;;;20.93;100.00
55032;BME280;40928;51.076;7.950;2023-09-08T08:02:51;97377.81;;;21.12;100.00
55032;BME280;40928;51.076;7.950;2023-09-08T08:05:18;97364.97;;;21.32;100.00
55032;BME280;40928;51.076;7.950;2023-09-08T08:07:44;97373.63;;;21.48;100.00
55032;BME280;40928;51.076;7.950;2023-09-08T08:10:11;97362.97;;;21.66;100.00
55032;BME280;40928;51.076;7.950;2023-09-08T08:12:37;97368.09;;;21.81;100.00
55032;BME280;40928;51.076;7.950;2023-09-08T08:15:03;97369.59;;;22.01;96.94
55032;BME280;40928;51.076;7.950;2023-09-08T08:17:30;97373.81;;;22.08;97.69
55032;BME280;40928;51.076;7.950;2023-09-08T08:19:56;97367.09;;;22.28;97.99
55032;BME280;40928;51.076;7.950;2023-09-08T08:22:26;97369.69;;;22.47;96.33
55032;BME280;40928;51.076;7.950;2023-09-08T08:24:52;97360.09;;;22.72;93.30
55032;BME280;40928;51.076;7.950;2023-09-08T08:27:17;97367.38;;;22.86;93.68
55032;BME280;40928;51.076;7.950;2023-09-08T08:29:43;97367.81;;;23.02;91.14
55032;BME280;40928;51.076;7.950;2023-09-08T08:32:08;97363.81;;;23.08;89.54
55032;BME280;40928;51.076;7.950;2023-09-08T08:34:34;97359.13;;;23.22;89.94
55032;BME280;40928;51.076;7.950;2023-09-08T08:37:00;97363.66;;;23.27;90.50
55032;BME280;40928;51.076;7.950;2023-09-08T08:39:25;97369.88;;;23.27;89.25
55032;BME280;40928;51.076;7.950;2023-09-08T08:41:51;97370.06;;;23.31;87.81
55032;BME280;40928;51.076;7.950;2023-09-08T08:44:17;97360.97;;;23.45;87.55
55032;BME280;40928;51.076;7.950;2023-09-08T08:46:44;97371.81;;;23.67;87.43
55032;BME280;40928;51.076;7.950;2023-09-08T08:49:14;97367.34;;;23.80;87.76
55032;BME280;40928;51.076;7.950;2023-09-08T08:51:42;97370.44;;;23.96;85.36
55032;BME280;40928;51.076;7.950;2023-09-08T08:54:09;97368.09;;;24.12;85.22
55032;BME280;40928;51.076;7.950;2023-09-08T08:56:36;97372.09;;;24.32;80.61
55032;BME280;40928;51.076;7.950;2023-09-08T08:59:02;97376.59;;;24.46;80.52
55032;BME280;40928;51.076;7.950;2023-09-08T09:01:28;97378.50;;;24.45;77.00
55032;BME280;40928;51.076;7.950;2023-09-08T09:03:55;97358.59;;;24.54;76.87
55032;BME280;40928;51.076;7.950;2023-09-08T09:06:21;97369.22;;;24.73;76.09
55032;BME280;40928;51.076;7.950;2023-09-08T09:08:47;97369.84;;;24.87;75.50
55032;BME280;40928;51.076;7.950;2023-09-08T09:11:12;97359.34;;;25.07;75.02
55032;BME280;40928;51.076;7.950;2023-09-08T09:13:38;97359.16;;;25.21;74.63
55032;BME280;40928;51.076;7.950;2023-09-08T09:16:05;97367.47;;;25.42;74.85
55032;BME280;40928;51.076;7.950;2023-09-08T09:18:55;97359.19;;;25.60;70.40
55032;BME280;40928;51.076;7.950;2023-09-08T09:21:21;97366.47;;;25.77;69.00
55032;BME280;40928;51.076;7.950;2023-09-08T09:23:47;97357.56;;;25.89;66.36
55032;BME280;40928;51.076;7.950;2023-09-08T09:26:23;97360.31;;;26.10;64.14
55032;BME280;40928;51.076;7.950;2023-09-08T09:28:49;97369.56;;;26.26;61.84
55032;BME280;40928;51.076;7.950;2023-09-08T09:31:23;97366.41;;;26.37;59.97
55032;BME280;40928;51.076;7.950;2023-09-08T09:34:04;97359.97;;;26.75;58.92
55032;BME280;40928;51.076;7.950;2023-09-08T09:36:30;97361.47;;;27.06;58.58
55032;BME280;40928;51.076;7.950;2023-09-08T09:38:59;97362.63;;;27.42;56.75
55032;BME280;40928;51.076;7.950;2023-09-08T09:41:28;97358.13;;;27.71;55.64
55032;BME280;40928;51.076;7.950;2023-09-08T09:43:56;97359.31;;;28.11;53.04
55032;BME280;40928;51.076;7.950;2023-09-08T09:46:22;97351.59;;;28.41;52.60
55032;BME280;40928;51.076;7.950;2023-09-08T09:48:51;97351.81;;;28.77;52.01
55032;BME280;40928;51.076;7.950;2023-09-08T09:51:19;97353.56;;;29.46;50.81
55032;BME280;40928;51.076;7.950;2023-09-08T09:53:45;97353.91;;;29.60;48.67
55032;BME280;40928;51.076;7.950;2023-09-08T09:56:11;97360.53;;;29.91;46.68
55032;BME280;40928;51.076;7.950;2023-09-08T09:58:37;97360.81;;;30.02;44.70
55032;BME280;40928;51.076;7.950;2023-09-08T10:01:04;97364.88;;;30.64;43.40
55032;BME280;40928;51.076;7.950;2023-09-08T10:03:31;97362.28;;;31.37;42.06
55032;BME280;40928;51.076;7.950;2023-09-08T10:05:59;97353.78;;;31.73;40.92
55032;BME280;40928;51.076;7.950;2023-09-08T10:08:24;97354.56;;;32.27;40.69
55032;BME280;40928;51.076;7.950;2023-09-08T10:10:50;97358.03;;;32.85;39.04
55032;BME280;40928;51.076;7.950;2023-09-08T10:13:23;97353.91;;;33.47;38.02
55032;BME280;40928;51.076;7.950;2023-09-08T10:15:54;97346.22;;;33.78;35.48
55032;BME280;40928;51.076;7.950;2023-09-08T10:18:23;97347.25;;;34.19;35.34
55032;BME280;40928;51.076;7.950;2023-09-08T10:20:53;97347.78;;;34.50;33.87
55032;BME280;40928;51.076;7.950;2023-09-08T10:23:38;97353.88;;;34.91;34.00
55032;BME280;40928;51.076;7.950;2023-09-08T10:26:11;97356.72;;;35.31;32.49
55032;BME280;40928;51.076;7.950;2023-09-08T10:28:37;97349.19;;;35.64;32.03
55032;BME280;40928;51.076;7.950;2023-09-08T10:31:04;97349.06;;;36.26;31.58
55032;BME280;40928;51.076;7.950;2023-09-08T10:33:31;97353.09;;;36.10;30.91
55032;BME280;40928;51.076;7.950;2023-09-08T10:35:58;97344.25;;;36.45;29.54
55032;BME280;40928;51.076;7.950;2023-09-08T10:38:26;97351.75;;;36.59;29.67
55032;BME280;40928;51.076;7.950;2023-09-08T10:40:52;97347.88;;;37.12;28.97
55032;BME280;40928;51.076;7.950;2023-09-08T10:43:19;97353.03;;;37.67;28.26
55032;BME280;40928;51.076;7.950;2023-09-08T10:45:48;97349.78;;;37.72;27.71
55032;BME280;40928;51.076;7.950;2023-09-08T10:48:14;97352.72;;;37.01;28.40
55032;BME280;40928;51.076;7.950;2023-09-08T10:50:41;97344.38;;;37.99;27.16
55032;BME280;40928;51.076;7.950;2023-09-08T10:55:46;97350.53;;;37.27;27.38
55032;BME280;40928;51.076;7.950;2023-09-08T10:58:30;97343.53;;;37.60;27.20
55032;BME280;40928;51.076;7.950;2023-09-08T11:01:00;97336.97;;;37.78;26.73
55032;BME280;40928;51.076;7.950;2023-09-08T11:06:05;97348.78;;;37.51;26.24
55032;BME280;40928;51.076;7.950;2023-09-08T11:08:33;97344.25;;;37.19;26.93
55032;BME280;40928;51.076;7.950;2023-09-08T11:10:59;97351.59;;;37.47;26.30
55032;BME280;40928;51.076;7.950;2023-09-08T11:13:26;97342.75;;;37.60;26.83
55032;BME280;40928;51.076;7.950;2023-09-08T11:15:55;97340.25;;;37.69;26.14
55032;BME280;40928;51.076;7.950;2023-09-08T11:18:30;97341.75;;;38.54;25.33
55032;BME280;40928;51.076;7.950;2023-09-08T11:20:57;97335.31;;;39.63;24.40
55032;BME280;40928;51.076;7.950;2023-09-08T11:23:23;97340.31;;;39.01;24.33
55032;BME280;40928;51.076;7.950;2023-09-08T11:25:50;97338.78;;;38.34;24.86
55032;BME280;40928;51.076;7.950;2023-09-08T11:28:23;97326.94;;;38.26;25.98
55032;BME280;40928;51.076;7.950;2023-09-08T11:30:49;97325.94;;;38.44;25.35
55032;BME280;40928;51.076;7.950;2023-09-08T11:33:19;97332.94;;;38.56;25.87
55032;BME280;40928;51.076;7.950;2023-09-08T11:35:50;97321.78;;;39.62;24.87
55032;BME280;40928;51.076;7.950;2023-09-08T11:38:17;97333.22;;;39.71;23.70
55032;BME280;40928;51.076;7.950;2023-09-08T11:40:43;97322.44;;;39.22;24.43
55032;BME280;40928;51.076;7.950;2023-09-08T11:43:08;97326.09;;;39.90;24.11
55032;BME280;40928;51.076;7.950;2023-09-08T11:45:35;97327.31;;;40.09;23.62
55032;BME280;40928;51.076;7.950;2023-09-08T11:48:01;97333.53;;;39.53;24.20
55032;BME280;40928;51.076;7.950;2023-09-08T11:50:26;97335.03;;;37.75;24.87
55032;BME280;40928;51.076;7.950;2023-09-08T11:52:53;97324.69;;;37.75;25.79
55032;BME280;40928;51.076;7.950;2023-09-08T11:55:21;97316.59;;;38.23;25.29
55032;BME280;40928;51.076;7.950;2023-09-08T11:57:57;97324.88;;;37.54;25.98
55032;BME280;40928;51.076;7.950;2023-09-08T12:00:23;97317.53;;;37.74;25.98
55032;BME280;40928;51.076;7.950;2023-09-08T12:02:51;97313.84;;;37.39;25.78
55032;BME280;40928;51.076;7.950;2023-09-08T12:05:22;97327.94;;;38.08;23.94
55032;BME280;40928;51.076;7.950;2023-09-08T12:07:51;97330.44;;;37.57;24.00
55032;BME280;40928;51.076;7.950;2023-09-08T12:10:17;97329.66;;;36.11;25.52
55032;BME280;40928;51.076;7.950;2023-09-08T12:12:51;97314.84;;;36.51;25.83
55032;BME280;40928;51.076;7.950;2023-09-08T12:17:58;97308.69;;;35.78;26.59
55032;BME280;40928;51.076;7.950;2023-09-08T12:20:23;97310.38;;;36.68;26.54
55032;BME280;40928;51.076;7.950;2023-09-08T12:22:50;97308.31;;;36.79;26.08
55032;BME280;40928;51.076;7.950;2023-09-08T12:25:16;97301.78;;;36.30;26.38
55032;BME280;40928;51.076;7.950;2023-09-08T12:27:42;97305.13;;;34.87;28.55
55032;BME280;40928;51.076;7.950;2023-09-08T12:30:08;97301.16;;;34.91;28.54
55032;BME280;40928;51.076;7.950;2023-09-08T12:32:35;97300.38;;;35.20;29.00
55032;BME280;40928;51.076;7.950;2023-09-08T12:35:03;97302.38;;;34.94;27.79
55032;BME280;40928;51.076;7.950;2023-09-08T12:37:29;97302.75;;;35.43;27.89
55032;BME280;40928;51.076;7.950;2023-09-08T12:39:56;97304.34;;;35.77;27.30
55032;BME280;40928;51.076;7.950;2023-09-08T12:42:22;97300.78;;;35.69;27.49
55032;BME280;40928;51.076;7.950;2023-09-08T12:44:51;97293.19;;;36.02;27.68
55032;BME280;40928;51.076;7.950;2023-09-08T12:47:16;97291.97;;;36.00;27.31
55032;BME280;40928;51.076;7.950;2023-09-08T12:49:42;97296.34;;;36.04;27.94
55032;BME280;40928;51.076;7.950;2023-09-08T12:52:07;97292.06;;;35.20;28.44
55032;BME280;40928;51.076;7.950;2023-09-08T12:54:34;97292.06;;;34.95;29.36
55032;BME280;40928;51.076;7.950;2023-09-08T12:56:59;97289.28;;;34.98;29.51
55032;BME280;40928;51.076;7.950;2023-09-08T12:59:25;97292.38;;;34.60;29.34
55032;BME280;40928;51.076;7.950;2023-09-08T13:01:50;97290.22;;;34.14;29.59